Kennedy, Alabama
Current Conditions -  °F | °C
As of 12:58 AM on Monday 24 Nov 2014 (Local Time) from KCBM Reporting Station
Clear Clear  
Wind Chill: 61°   Ceiling: Unl
Heat Index: 61°   Visibility: 10mi
Dew Point: 58°   Wind: 12mph
Humidity: 88%   Direction: 190°S
Pressure: 29.6"   Gusts: NA
Location:  33.59°N, 87.98°W
Report Text: KCBM 240658Z AUTO 19010KT 10SM CLR 16/14 A2960 RMK AO2 SLP025 T01620142 $
Loading
Personal Weather Stations






























Interactive Weather Map New forecast layout! Learn more

10-Day Weather Forecast

Advertisements
Track Severe Weather on mobile